Terminal Aerodrome Forecast
Issued by NWS

Home | Current Version | Previous Version | Text Only | Print | Product List | Glossary On
Versions: 1 2 3 4 5 6 7 8 9 10 11 12 13 14 15
000
FTUS46 KSGX 201100
TAFONT
TAF
KONT 201129Z 2012/2118 VRB05KT P6SM SCT015
      TEMPO 2012/2014 BKN015
     FM202100 25012KT P6SM SCT090 SCT120
     FM210400 24006KT P6SM SKC
     FM210900 VRB05KT P6SM BKN010
     FM211500 VRB04KT P6SM SCT012=

USA.gov is the U.S. government's official web portal to all federal, state and local government web resources and services.